sensor_id;sensor_type;location;lat;lon;timestamp;P1;durP1;ratioP1;P2;durP2;ratioP2
77449;SDS011;66536;53.150;18.172;2024-03-08T00:01:48;37.90;;;14.80;;
77449;SDS011;66536;53.150;18.172;2024-03-08T00:04:15;29.30;;;11.50;;
77449;SDS011;66536;53.150;18.172;2024-03-08T00:06:41;39.80;;;13.40;;
77449;SDS011;66536;53.150;18.172;2024-03-08T00:09:07;28.90;;;12.50;;
77449;SDS011;66536;53.150;18.172;2024-03-08T00:11:34;30.70;;;13.80;;
77449;SDS011;66536;53.150;18.172;2024-03-08T00:14:00;32.10;;;13.40;;
77449;SDS011;66536;53.150;18.172;2024-03-08T00:16:27;28.50;;;11.70;;
77449;SDS011;66536;53.150;18.172;2024-03-08T00:18:53;30.70;;;13.10;;
77449;SDS011;66536;53.150;18.172;2024-03-08T00:21:19;26.90;;;11.40;;
77449;SDS011;66536;53.150;18.172;2024-03-08T00:23:45;29.00;;;11.40;;
77449;SDS011;66536;53.150;18.172;2024-03-08T00:26:11;34.10;;;12.90;;
77449;SDS011;66536;53.150;18.172;2024-03-08T00:28:37;37.00;;;14.00;;
77449;SDS011;66536;53.150;18.172;2024-03-08T00:31:03;38.90;;;15.60;;
77449;SDS011;66536;53.150;18.172;2024-03-08T00:33:29;47.00;;;14.50;;
77449;SDS011;66536;53.150;18.172;2024-03-08T00:35:55;41.20;;;15.90;;
77449;SDS011;66536;53.150;18.172;2024-03-08T00:38:21;41.20;;;16.00;;
77449;SDS011;66536;53.150;18.172;2024-03-08T00:40:48;35.60;;;14.50;;
77449;SDS011;66536;53.150;18.172;2024-03-08T00:43:14;34.50;;;18.20;;
77449;SDS011;66536;53.150;18.172;2024-03-08T00:45:41;27.80;;;13.00;;
77449;SDS011;66536;53.150;18.172;2024-03-08T00:48:08;32.60;;;15.40;;
77449;SDS011;66536;53.150;18.172;2024-03-08T00:50:36;30.20;;;13.00;;
77449;SDS011;66536;53.150;18.172;2024-03-08T00:53:02;28.60;;;13.00;;
77449;SDS011;66536;53.150;18.172;2024-03-08T00:55:30;30.20;;;12.80;;
77449;SDS011;66536;53.150;18.172;2024-03-08T00:57:56;29.20;;;12.60;;
77449;SDS011;66536;53.150;18.172;2024-03-08T01:00:22;36.70;;;14.60;;
77449;SDS011;66536;53.150;18.172;2024-03-08T01:02:49;22.90;;;10.50;;
77449;SDS011;66536;53.150;18.172;2024-03-08T01:05:15;34.60;;;14.30;;
77449;SDS011;66536;53.150;18.172;2024-03-08T01:07:41;30.40;;;13.40;;
77449;SDS011;66536;53.150;18.172;2024-03-08T01:10:08;29.60;;;13.60;;
77449;SDS011;66536;53.150;18.172;2024-03-08T01:12:35;28.10;;;11.90;;
77449;SDS011;66536;53.150;18.172;2024-03-08T01:15:01;33.00;;;13.20;;
77449;SDS011;66536;53.150;18.172;2024-03-08T01:17:27;47.40;;;17.00;;
77449;SDS011;66536;53.150;18.172;2024-03-08T01:19:53;51.40;;;18.00;;
77449;SDS011;66536;53.150;18.172;2024-03-08T01:22:19;54.10;;;18.20;;
77449;SDS011;66536;53.150;18.172;2024-03-08T01:24:45;59.70;;;19.10;;
77449;SDS011;66536;53.150;18.172;2024-03-08T01:27:12;45.60;;;16.40;;
77449;SDS011;66536;53.150;18.172;2024-03-08T01:29:38;49.90;;;19.60;;
77449;SDS011;66536;53.150;18.172;2024-03-08T01:32:04;54.20;;;19.10;;
77449;SDS011;66536;53.150;18.172;2024-03-08T01:34:31;44.00;;;15.50;;
77449;SDS011;66536;53.150;18.172;2024-03-08T01:36:58;53.80;;;18.50;;
77449;SDS011;66536;53.150;18.172;2024-03-08T01:39:25;54.20;;;19.50;;
77449;SDS011;66536;53.150;18.172;2024-03-08T01:41:51;50.30;;;18.30;;
77449;SDS011;66536;53.150;18.172;2024-03-08T01:44:17;37.30;;;14.40;;
77449;SDS011;66536;53.150;18.172;2024-03-08T01:46:44;36.10;;;15.10;;
77449;SDS011;66536;53.150;18.172;2024-03-08T01:49:10;40.70;;;15.60;;
77449;SDS011;66536;53.150;18.172;2024-03-08T01:51:38;41.00;;;16.00;;
77449;SDS011;66536;53.150;18.172;2024-03-08T01:54:05;38.70;;;14.30;;
77449;SDS011;66536;53.150;18.172;2024-03-08T01:56:34;32.50;;;13.60;;
77449;SDS011;66536;53.150;18.172;2024-03-08T01:59:00;37.80;;;15.30;;
77449;SDS011;66536;53.150;18.172;2024-03-08T02:01:27;36.20;;;14.90;;
77449;SDS011;66536;53.150;18.172;2024-03-08T02:03:54;44.80;;;17.20;;
77449;SDS011;66536;53.150;18.172;2024-03-08T02:06:20;41.70;;;16.00;;
77449;SDS011;66536;53.150;18.172;2024-03-08T02:08:46;30.90;;;13.20;;
77449;SDS011;66536;53.150;18.172;2024-03-08T02:11:13;33.10;;;13.90;;
77449;SDS011;66536;53.150;18.172;2024-03-08T02:13:39;31.20;;;13.60;;
77449;SDS011;66536;53.150;18.172;2024-03-08T02:16:05;44.90;;;17.40;;
77449;SDS011;66536;53.150;18.172;2024-03-08T02:18:33;37.30;;;15.20;;
77449;SDS011;66536;53.150;18.172;2024-03-08T02:21:00;39.30;;;16.10;;
77449;SDS011;66536;53.150;18.172;2024-03-08T02:23:28;28.40;;;13.60;;
77449;SDS011;66536;53.150;18.172;2024-03-08T02:25:55;30.60;;;13.90;;
77449;SDS011;66536;53.150;18.172;2024-03-08T02:28:22;40.70;;;16.70;;
77449;SDS011;66536;53.150;18.172;2024-03-08T02:30:49;32.00;;;13.50;;
77449;SDS011;66536;53.150;18.172;2024-03-08T02:33:17;30.70;;;13.10;;
77449;SDS011;66536;53.150;18.172;2024-03-08T02:35:44;30.50;;;13.50;;
77449;SDS011;66536;53.150;18.172;2024-03-08T02:38:15;34.80;;;15.20;;
77449;SDS011;66536;53.150;18.172;2024-03-08T02:40:43;30.90;;;13.20;;
77449;SDS011;66536;53.150;18.172;2024-03-08T02:43:09;30.10;;;12.20;;
77449;SDS011;66536;53.150;18.172;2024-03-08T02:45:36;33.50;;;14.90;;
77449;SDS011;66536;53.150;18.172;2024-03-08T02:48:03;34.50;;;14.30;;
77449;SDS011;66536;53.150;18.172;2024-03-08T02:50:29;33.60;;;15.10;;
77449;SDS011;66536;53.150;18.172;2024-03-08T02:52:55;37.30;;;14.00;;
77449;SDS011;66536;53.150;18.172;2024-03-08T02:55:21;34.40;;;14.30;;
77449;SDS011;66536;53.150;18.172;2024-03-08T02:57:48;56.40;;;20.90;;
77449;SDS011;66536;53.150;18.172;2024-03-08T03:00:14;44.10;;;16.50;;
77449;SDS011;66536;53.150;18.172;2024-03-08T03:02:41;38.20;;;16.60;;
77449;SDS011;66536;53.150;18.172;2024-03-08T03:05:08;32.40;;;13.90;;
77449;SDS011;66536;53.150;18.172;2024-03-08T03:07:35;38.20;;;14.40;;
77449;SDS011;66536;53.150;18.172;2024-03-08T03:10:01;38.50;;;16.30;;
77449;SDS011;66536;53.150;18.172;2024-03-08T03:12:28;33.20;;;12.90;;
77449;SDS011;66536;53.150;18.172;2024-03-08T03:14:55;24.90;;;10.90;;
77449;SDS011;66536;53.150;18.172;2024-03-08T03:17:23;36.30;;;14.70;;
77449;SDS011;66536;53.150;18.172;2024-03-08T03:19:51;30.70;;;14.50;;
77449;SDS011;66536;53.150;18.172;2024-03-08T03:22:18;30.40;;;14.50;;
77449;SDS011;66536;53.150;18.172;2024-03-08T03:24:44;35.00;;;16.70;;
77449;SDS011;66536;53.150;18.172;2024-03-08T03:27:13;39.80;;;16.10;;
77449;SDS011;66536;53.150;18.172;2024-03-08T03:29:41;35.70;;;14.60;;
77449;SDS011;66536;53.150;18.172;2024-03-08T03:32:11;33.40;;;14.00;;
77449;SDS011;66536;53.150;18.172;2024-03-08T03:34:38;54.20;;;22.90;;
77449;SDS011;66536;53.150;18.172;2024-03-08T03:37:09;47.40;;;20.20;;
77449;SDS011;66536;53.150;18.172;2024-03-08T03:39:38;37.70;;;16.00;;
77449;SDS011;66536;53.150;18.172;2024-03-08T03:42:14;36.30;;;17.40;;
77449;SDS011;66536;53.150;18.172;2024-03-08T03:44:44;47.10;;;19.30;;
77449;SDS011;66536;53.150;18.172;2024-03-08T03:47:11;42.80;;;19.50;;
77449;SDS011;66536;53.150;18.172;2024-03-08T03:49:38;51.60;;;19.80;;
77449;SDS011;66536;53.150;18.172;2024-03-08T03:52:04;39.00;;;17.00;;
77449;SDS011;66536;53.150;18.172;2024-03-08T03:54:31;38.00;;;18.10;;
77449;SDS011;66536;53.150;18.172;2024-03-08T03:56:58;45.10;;;19.10;;
77449;SDS011;66536;53.150;18.172;2024-03-08T03:59:26;61.20;;;24.30;;
77449;SDS011;66536;53.150;18.172;2024-03-08T04:01:53;62.10;;;25.00;;
77449;SDS011;66536;53.150;18.172;2024-03-08T04:04:20;58.00;;;22.20;;
77449;SDS011;66536;53.150;18.172;2024-03-08T04:06:47;50.30;;;21.20;;
77449;SDS011;66536;53.150;18.172;2024-03-08T04:09:13;44.40;;;18.20;;
77449;SDS011;66536;53.150;18.172;2024-03-08T04:11:39;51.70;;;20.70;;
77449;SDS011;66536;53.150;18.172;2024-03-08T04:14:06;65.00;;;24.80;;
77449;SDS011;66536;53.150;18.172;2024-03-08T04:16:32;50.20;;;21.80;;
77449;SDS011;66536;53.150;18.172;2024-03-08T04:18:58;54.40;;;21.20;;
77449;SDS011;66536;53.150;18.172;2024-03-08T04:21:25;52.00;;;20.80;;
77449;SDS011;66536;53.150;18.172;2024-03-08T04:23:51;60.80;;;23.70;;
77449;SDS011;66536;53.150;18.172;2024-03-08T04:26:17;62.70;;;22.10;;
77449;SDS011;66536;53.150;18.172;2024-03-08T04:28:43;54.80;;;20.60;;
77449;SDS011;66536;53.150;18.172;2024-03-08T04:31:09;64.80;;;23.80;;
77449;SDS011;66536;53.150;18.172;2024-03-08T04:33:36;69.50;;;24.10;;
77449;SDS011;66536;53.150;18.172;2024-03-08T04:36:02;53.90;;;22.50;;
77449;SDS011;66536;53.150;18.172;2024-03-08T04:38:30;44.10;;;18.00;;
77449;SDS011;66536;53.150;18.172;2024-03-08T04:40:56;52.00;;;19.10;;
77449;SDS011;66536;53.150;18.172;2024-03-08T04:43:23;63.00;;;22.70;;
77449;SDS011;66536;53.150;18.172;2024-03-08T04:45:52;49.20;;;18.60;;
77449;SDS011;66536;53.150;18.172;2024-03-08T04:48:19;48.30;;;20.00;;
77449;SDS011;66536;53.150;18.172;2024-03-08T04:50:46;46.30;;;16.30;;
77449;SDS011;66536;53.150;18.172;2024-03-08T04:53:12;44.00;;;17.50;;
77449;SDS011;66536;53.150;18.172;2024-03-08T04:55:39;53.20;;;21.30;;
77449;SDS011;66536;53.150;18.172;2024-03-08T04:58:05;75.40;;;25.40;;
77449;SDS011;66536;53.150;18.172;2024-03-08T05:00:31;126.60;;;38.10;;
77449;SDS011;66536;53.150;18.172;2024-03-08T05:02:58;113.60;;;43.30;;
77449;SDS011;66536;53.150;18.172;2024-03-08T05:05:24;74.20;;;30.80;;
77449;SDS011;66536;53.150;18.172;2024-03-08T05:07:53;137.20;;;35.30;;
77449;SDS011;66536;53.150;18.172;2024-03-08T05:10:19;117.90;;;27.40;;
77449;SDS011;66536;53.150;18.172;2024-03-08T05:12:45;99.10;;;22.90;;
77449;SDS011;66536;53.150;18.172;2024-03-08T05:15:11;130.10;;;31.40;;
77449;SDS011;66536;53.150;18.172;2024-03-08T05:17:37;78.20;;;21.80;;
77449;SDS011;66536;53.150;18.172;2024-03-08T05:20:06;90.20;;;23.50;;
77449;SDS011;66536;53.150;18.172;2024-03-08T05:22:37;81.50;;;21.80;;
77449;SDS011;66536;53.150;18.172;2024-03-08T05:25:04;101.40;;;22.70;;
77449;SDS011;66536;53.150;18.172;2024-03-08T05:27:30;92.80;;;22.90;;
77449;SDS011;66536;53.150;18.172;2024-03-08T05:29:56;77.10;;;20.50;;
77449;SDS011;66536;53.150;18.172;2024-03-08T05:32:22;87.70;;;20.30;;
77449;SDS011;66536;53.150;18.172;2024-03-08T05:34:50;99.50;;;21.30;;
77449;SDS011;66536;53.150;18.172;2024-03-08T05:37:16;89.40;;;20.30;;
77449;SDS011;66536;53.150;18.172;2024-03-08T05:39:42;72.60;;;21.60;;
77449;SDS011;66536;53.150;18.172;2024-03-08T05:42:10;81.00;;;21.40;;
77449;SDS011;66536;53.150;18.172;2024-03-08T05:44:36;79.50;;;22.40;;
77449;SDS011;66536;53.150;18.172;2024-03-08T05:47:02;79.90;;;19.90;;
77449;SDS011;66536;53.150;18.172;2024-03-08T05:49:28;86.20;;;21.00;;
77449;SDS011;66536;53.150;18.172;2024-03-08T05:51:54;66.40;;;20.40;;
77449;SDS011;66536;53.150;18.172;2024-03-08T05:54:20;76.30;;;19.80;;
77449;SDS011;66536;53.150;18.172;2024-03-08T05:56:49;88.70;;;19.90;;
77449;SDS011;66536;53.150;18.172;2024-03-08T05:59:19;65.30;;;17.50;;
77449;SDS011;66536;53.150;18.172;2024-03-08T06:01:45;67.60;;;23.70;;
77449;SDS011;66536;53.150;18.172;2024-03-08T06:04:12;66.10;;;21.20;;
77449;SDS011;66536;53.150;18.172;2024-03-08T06:06:39;64.50;;;19.10;;
77449;SDS011;66536;53.150;18.172;2024-03-08T06:09:05;101.80;;;21.20;;
77449;SDS011;66536;53.150;18.172;2024-03-08T06:11:37;78.70;;;22.00;;
77449;SDS011;66536;53.150;18.172;2024-03-08T06:14:03;60.80;;;19.80;;
77449;SDS011;66536;53.150;18.172;2024-03-08T06:16:29;56.80;;;21.90;;
77449;SDS011;66536;53.150;18.172;2024-03-08T06:18:56;57.00;;;17.90;;
77449;SDS011;66536;53.150;18.172;2024-03-08T06:21:25;128.10;;;46.40;;
77449;SDS011;66536;53.150;18.172;2024-03-08T06:23:53;73.60;;;21.00;;
77449;SDS011;66536;53.150;18.172;2024-03-08T06:26:20;101.20;;;22.40;;
77449;SDS011;66536;53.150;18.172;2024-03-08T06:28:47;61.90;;;18.90;;
77449;SDS011;66536;53.150;18.172;2024-03-08T06:31:14;72.90;;;19.80;;
77449;SDS011;66536;53.150;18.172;2024-03-08T06:33:40;65.80;;;19.60;;
77449;SDS011;66536;53.150;18.172;2024-03-08T06:36:06;80.00;;;21.40;;
77449;SDS011;66536;53.150;18.172;2024-03-08T06:38:33;67.70;;;21.00;;
77449;SDS011;66536;53.150;18.172;2024-03-08T06:41:01;62.60;;;20.10;;
77449;SDS011;66536;53.150;18.172;2024-03-08T06:43:29;63.60;;;20.10;;
77449;SDS011;66536;53.150;18.172;2024-03-08T06:45:59;73.50;;;21.00;;
77449;SDS011;66536;53.150;18.172;2024-03-08T06:48:26;53.10;;;20.20;;
77449;SDS011;66536;53.150;18.172;2024-03-08T06:50:52;59.50;;;22.90;;
77449;SDS011;66536;53.150;18.172;2024-03-08T06:53:18;79.30;;;31.20;;
77449;SDS011;66536;53.150;18.172;2024-03-08T06:55:44;89.00;;;24.30;;
77449;SDS011;66536;53.150;18.172;2024-03-08T06:58:11;88.20;;;23.10;;
77449;SDS011;66536;53.150;18.172;2024-03-08T07:00:37;88.50;;;20.60;;
77449;SDS011;66536;53.150;18.172;2024-03-08T07:03:04;76.20;;;21.00;;
77449;SDS011;66536;53.150;18.172;2024-03-08T07:05:33;75.20;;;22.70;;
77449;SDS011;66536;53.150;18.172;2024-03-08T07:08:01;93.40;;;25.00;;
77449;SDS011;66536;53.150;18.172;2024-03-08T07:10:28;69.80;;;23.00;;
77449;SDS011;66536;53.150;18.172;2024-03-08T07:12:54;67.30;;;21.60;;
77449;SDS011;66536;53.150;18.172;2024-03-08T07:15:21;57.40;;;21.00;;
77449;SDS011;66536;53.150;18.172;2024-03-08T07:17:49;68.10;;;22.30;;
77449;SDS011;66536;53.150;18.172;2024-03-08T07:20:17;65.50;;;22.70;;
77449;SDS011;66536;53.150;18.172;2024-03-08T07:22:45;100.00;;;26.70;;
77449;SDS011;66536;53.150;18.172;2024-03-08T07:25:14;67.20;;;22.00;;
77449;SDS011;66536;53.150;18.172;2024-03-08T07:27:48;82.80;;;21.10;;
77449;SDS011;66536;53.150;18.172;2024-03-08T07:30:15;66.10;;;20.60;;
77449;SDS011;66536;53.150;18.172;2024-03-08T07:33:02;75.10;;;27.00;;
77449;SDS011;66536;53.150;18.172;2024-03-08T07:35:28;66.20;;;21.30;;
77449;SDS011;66536;53.150;18.172;2024-03-08T07:37:55;49.80;;;21.20;;
77449;SDS011;66536;53.150;18.172;2024-03-08T07:43:48;55.30;;;20.80;;
77449;SDS011;66536;53.150;18.172;2024-03-08T07:46:15;49.30;;;18.90;;
77449;SDS011;66536;53.150;18.172;2024-03-08T07:48:44;49.60;;;20.40;;
77449;SDS011;66536;53.150;18.172;2024-03-08T07:51:10;56.20;;;19.10;;
77449;SDS011;66536;53.150;18.172;2024-03-08T07:53:38;54.60;;;20.10;;
77449;SDS011;66536;53.150;18.172;2024-03-08T07:56:04;47.60;;;19.00;;
77449;SDS011;66536;53.150;18.172;2024-03-08T07:58:30;100.70;;;40.40;;
77449;SDS011;66536;53.150;18.172;2024-03-08T08:00:57;48.20;;;20.60;;
77449;SDS011;66536;53.150;18.172;2024-03-08T08:03:23;43.90;;;18.80;;
77449;SDS011;66536;53.150;18.172;2024-03-08T08:05:49;44.50;;;18.70;;
77449;SDS011;66536;53.150;18.172;2024-03-08T08:08:16;43.30;;;18.70;;
77449;SDS011;66536;53.150;18.172;2024-03-08T08:10:42;48.00;;;19.40;;
77449;SDS011;66536;53.150;18.172;2024-03-08T08:13:08;44.60;;;19.70;;
77449;SDS011;66536;53.150;18.172;2024-03-08T08:15:34;46.00;;;20.10;;
77449;SDS011;66536;53.150;18.172;2024-03-08T08:18:02;43.50;;;19.80;;
77449;SDS011;66536;53.150;18.172;2024-03-08T08:20:31;47.50;;;20.80;;
77449;SDS011;66536;53.150;18.172;2024-03-08T08:22:57;48.10;;;21.30;;
77449;SDS011;66536;53.150;18.172;2024-03-08T08:25:24;42.40;;;20.30;;
77449;SDS011;66536;53.150;18.172;2024-03-08T08:27:51;53.70;;;21.40;;
77449;SDS011;66536;53.150;18.172;2024-03-08T08:30:19;51.50;;;23.50;;
77449;SDS011;66536;53.150;18.172;2024-03-08T08:32:46;55.90;;;24.50;;
77449;SDS011;66536;53.150;18.172;2024-03-08T08:35:13;57.90;;;25.20;;
77449;SDS011;66536;53.150;18.172;2024-03-08T08:37:39;58.20;;;27.30;;
77449;SDS011;66536;53.150;18.172;2024-03-08T08:40:05;55.80;;;24.10;;
77449;SDS011;66536;53.150;18.172;2024-03-08T08:42:36;53.80;;;24.10;;
77449;SDS011;66536;53.150;18.172;2024-03-08T08:45:05;67.80;;;30.90;;
77449;SDS011;66536;53.150;18.172;2024-03-08T08:47:35;61.50;;;27.00;;
77449;SDS011;66536;53.150;18.172;2024-03-08T08:50:01;50.50;;;22.80;;
77449;SDS011;66536;53.150;18.172;2024-03-08T08:52:29;86.20;;;37.00;;
77449;SDS011;66536;53.150;18.172;2024-03-08T08:54:57;52.70;;;24.20;;
77449;SDS011;66536;53.150;18.172;2024-03-08T08:57:25;43.20;;;21.40;;
77449;SDS011;66536;53.150;18.172;2024-03-08T08:59:53;50.80;;;22.20;;
77449;SDS011;66536;53.150;18.172;2024-03-08T09:02:21;47.80;;;21.70;;
77449;SDS011;66536;53.150;18.172;2024-03-08T09:04:47;52.30;;;22.70;;
77449;SDS011;66536;53.150;18.172;2024-03-08T09:07:14;43.50;;;20.60;;
77449;SDS011;66536;53.150;18.172;2024-03-08T09:09:42;40.80;;;20.70;;
77449;SDS011;66536;53.150;18.172;2024-03-08T09:12:09;48.70;;;22.50;;
77449;SDS011;66536;53.150;18.172;2024-03-08T09:14:42;42.40;;;20.10;;
77449;SDS011;66536;53.150;18.172;2024-03-08T09:17:08;46.80;;;22.30;;
77449;SDS011;66536;53.150;18.172;2024-03-08T09:19:35;41.40;;;19.80;;
77449;SDS011;66536;53.150;18.172;2024-03-08T09:22:02;49.80;;;22.30;;
77449;SDS011;66536;53.150;18.172;2024-03-08T09:24:29;39.50;;;19.10;;
77449;SDS011;66536;53.150;18.172;2024-03-08T09:26:56;39.10;;;18.90;;
77449;SDS011;66536;53.150;18.172;2024-03-08T09:29:24;39.70;;;19.30;;
77449;SDS011;66536;53.150;18.172;2024-03-08T09:31:50;39.40;;;18.00;;
77449;SDS011;66536;53.150;18.172;2024-03-08T09:34:17;42.50;;;20.10;;
77449;SDS011;66536;53.150;18.172;2024-03-08T09:36:44;38.40;;;19.40;;
77449;SDS011;66536;53.150;18.172;2024-03-08T09:39:11;44.30;;;20.20;;
77449;SDS011;66536;53.150;18.172;2024-03-08T09:41:42;58.80;;;23.30;;
77449;SDS011;66536;53.150;18.172;2024-03-08T09:44:09;41.40;;;18.60;;
77449;SDS011;66536;53.150;18.172;2024-03-08T09:46:35;45.50;;;20.20;;
77449;SDS011;66536;53.150;18.172;2024-03-08T09:49:02;41.60;;;19.50;;
77449;SDS011;66536;53.150;18.172;2024-03-08T09:51:31;39.20;;;18.30;;
77449;SDS011;66536;53.150;18.172;2024-03-08T09:54:01;47.70;;;21.30;;
77449;SDS011;66536;53.150;18.172;2024-03-08T09:56:33;61.00;;;27.80;;
77449;SDS011;66536;53.150;18.172;2024-03-08T09:59:05;41.40;;;19.40;;
77449;SDS011;66536;53.150;18.172;2024-03-08T10:01:51;30.90;;;14.90;;
77449;SDS011;66536;53.150;18.172;2024-03-08T10:04:18;37.10;;;16.70;;
77449;SDS011;66536;53.150;18.172;2024-03-08T10:06:44;33.90;;;16.40;;
77449;SDS011;66536;53.150;18.172;2024-03-08T10:09:12;35.50;;;15.90;;
77449;SDS011;66536;53.150;18.172;2024-03-08T10:11:39;28.30;;;14.10;;
77449;SDS011;66536;53.150;18.172;2024-03-08T10:14:07;28.40;;;14.00;;
77449;SDS011;66536;53.150;18.172;2024-03-08T10:16:34;27.40;;;13.20;;
77449;SDS011;66536;53.150;18.172;2024-03-08T10:19:01;32.00;;;14.10;;
77449;SDS011;66536;53.150;18.172;2024-03-08T10:21:27;23.90;;;12.50;;
77449;SDS011;66536;53.150;18.172;2024-03-08T10:23:55;27.10;;;11.50;;
77449;SDS011;66536;53.150;18.172;2024-03-08T10:26:21;68.30;;;24.00;;
77449;SDS011;66536;53.150;18.172;2024-03-08T10:28:48;26.90;;;12.70;;
77449;SDS011;66536;53.150;18.172;2024-03-08T10:31:15;26.90;;;12.50;;
77449;SDS011;66536;53.150;18.172;2024-03-08T10:33:43;21.90;;;10.80;;
77449;SDS011;66536;53.150;18.172;2024-03-08T10:36:10;21.90;;;10.40;;
77449;SDS011;66536;53.150;18.172;2024-03-08T10:38:41;21.10;;;11.00;;
77449;SDS011;66536;53.150;18.172;2024-03-08T10:41:09;27.50;;;15.00;;
77449;SDS011;66536;53.150;18.172;2024-03-08T10:49:31;26.40;;;12.80;;
77449;SDS011;66536;53.150;18.172;2024-03-08T10:52:04;27.10;;;14.20;;
77449;SDS011;66536;53.150;18.172;2024-03-08T10:54:36;24.80;;;12.40;;
77449;SDS011;66536;53.150;18.172;2024-03-08T10:57:05;25.60;;;13.20;;
77449;SDS011;66536;53.150;18.172;2024-03-08T10:59:34;24.50;;;13.60;;
77449;SDS011;66536;53.150;18.172;2024-03-08T11:02:01;29.10;;;13.40;;
77449;SDS011;66536;53.150;18.172;2024-03-08T11:04:27;31.40;;;13.50;;
77449;SDS011;66536;53.150;18.172;2024-03-08T11:07:00;22.30;;;12.20;;
77449;SDS011;66536;53.150;18.172;2024-03-08T11:09:32;26.00;;;12.90;;
77449;SDS011;66536;53.150;18.172;2024-03-08T11:14:46;37.20;;;16.40;;
77449;SDS011;66536;53.150;18.172;2024-03-08T11:17:20;24.90;;;13.70;;
77449;SDS011;66536;53.150;18.172;2024-03-08T11:19:48;26.20;;;11.80;;
77449;SDS011;66536;53.150;18.172;2024-03-08T11:22:20;22.70;;;11.90;;
77449;SDS011;66536;53.150;18.172;2024-03-08T11:24:50;25.10;;;12.30;;
77449;SDS011;66536;53.150;18.172;2024-03-08T11:27:29;26.70;;;12.80;;
77449;SDS011;66536;53.150;18.172;2024-03-08T11:30:02;22.10;;;11.80;;
77449;SDS011;66536;53.150;18.172;2024-03-08T11:32:37;24.70;;;13.10;;
77449;SDS011;66536;53.150;18.172;2024-03-08T11:35:05;22.50;;;12.60;;
77449;SDS011;66536;53.150;18.172;2024-03-08T11:37:33;22.60;;;12.90;;
77449;SDS011;66536;53.150;18.172;2024-03-08T11:40:01;26.10;;;13.00;;
77449;SDS011;66536;53.150;18.172;2024-03-08T11:42:30;22.90;;;12.80;;
77449;SDS011;66536;53.150;18.172;2024-03-08T11:44:56;23.30;;;12.40;;
77449;SDS011;66536;53.150;18.172;2024-03-08T11:47:23;24.30;;;13.80;;
77449;SDS011;66536;53.150;18.172;2024-03-08T11:49:51;24.80;;;13.60;;
77449;SDS011;66536;53.150;18.172;2024-03-08T11:52:18;26.50;;;14.10;;
77449;SDS011;66536;53.150;18.172;2024-03-08T11:54:51;27.10;;;12.90;;
77449;SDS011;66536;53.150;18.172;2024-03-08T11:57:21;24.60;;;13.40;;
77449;SDS011;66536;53.150;18.172;2024-03-08T11:59:50;29.90;;;15.60;;
77449;SDS011;66536;53.150;18.172;2024-03-08T12:02:17;26.50;;;14.20;;
77449;SDS011;66536;53.150;18.172;2024-03-08T12:04:45;26.00;;;13.70;;
77449;SDS011;66536;53.150;18.172;2024-03-08T12:07:11;25.70;;;13.90;;
77449;SDS011;66536;53.150;18.172;2024-03-08T12:09:40;31.20;;;15.80;;
77449;SDS011;66536;53.150;18.172;2024-03-08T12:12:12;31.50;;;18.20;;
77449;SDS011;66536;53.150;18.172;2024-03-08T12:14:39;29.30;;;15.20;;
77449;SDS011;66536;53.150;18.172;2024-03-08T12:17:10;30.40;;;15.50;;
77449;SDS011;66536;53.150;18.172;2024-03-08T12:19:36;24.60;;;13.70;;
77449;SDS011;66536;53.150;18.172;2024-03-08T12:22:07;28.80;;;14.90;;
77449;SDS011;66536;53.150;18.172;2024-03-08T12:24:35;28.40;;;15.00;;
77449;SDS011;66536;53.150;18.172;2024-03-08T12:27:17;37.10;;;16.80;;
77449;SDS011;66536;53.150;18.172;2024-03-08T12:29:44;44.90;;;18.50;;
77449;SDS011;66536;53.150;18.172;2024-03-08T12:32:10;33.70;;;16.60;;
77449;SDS011;66536;53.150;18.172;2024-03-08T12:34:39;41.80;;;17.50;;
77449;SDS011;66536;53.150;18.172;2024-03-08T12:37:06;30.20;;;15.90;;
77449;SDS011;66536;53.150;18.172;2024-03-08T12:39:32;27.70;;;14.50;;
77449;SDS011;66536;53.150;18.172;2024-03-08T12:42:00;33.30;;;15.20;;
77449;SDS011;66536;53.150;18.172;2024-03-08T12:44:26;31.00;;;15.60;;
77449;SDS011;66536;53.150;18.172;2024-03-08T12:46:53;25.30;;;13.90;;
77449;SDS011;66536;53.150;18.172;2024-03-08T12:49:22;26.70;;;13.80;;
77449;SDS011;66536;53.150;18.172;2024-03-08T12:51:50;27.90;;;13.40;;
77449;SDS011;66536;53.150;18.172;2024-03-08T12:54:17;29.20;;;14.80;;
77449;SDS011;66536;53.150;18.172;2024-03-08T12:56:44;27.20;;;14.10;;
77449;SDS011;66536;53.150;18.172;2024-03-08T12:59:12;24.70;;;12.30;;
77449;SDS011;66536;53.150;18.172;2024-03-08T13:01:39;24.50;;;13.00;;
77449;SDS011;66536;53.150;18.172;2024-03-08T13:04:05;24.30;;;12.80;;
77449;SDS011;66536;53.150;18.172;2024-03-08T13:06:32;26.80;;;13.50;;
77449;SDS011;66536;53.150;18.172;2024-03-08T13:08:58;21.10;;;11.50;;
77449;SDS011;66536;53.150;18.172;2024-03-08T13:11:30;26.50;;;13.60;;
77449;SDS011;66536;53.150;18.172;2024-03-08T13:14:02;24.20;;;12.90;;
77449;SDS011;66536;53.150;18.172;2024-03-08T13:16:31;21.00;;;12.40;;
77449;SDS011;66536;53.150;18.172;2024-03-08T13:18:57;19.80;;;11.20;;
77449;SDS011;66536;53.150;18.172;2024-03-08T13:21:24;20.70;;;10.90;;
77449;SDS011;66536;53.150;18.172;2024-03-08T13:23:50;20.00;;;11.20;;
77449;SDS011;66536;53.150;18.172;2024-03-08T13:26:19;20.70;;;11.60;;
77449;SDS011;66536;53.150;18.172;2024-03-08T13:28:46;59.80;;;28.50;;
77449;SDS011;66536;53.150;18.172;2024-03-08T13:31:19;23.00;;;12.60;;
77449;SDS011;66536;53.150;18.172;2024-03-08T13:33:46;22.60;;;10.60;;
77449;SDS011;66536;53.150;18.172;2024-03-08T13:36:14;21.60;;;11.30;;
77449;SDS011;66536;53.150;18.172;2024-03-08T13:38:41;21.80;;;11.80;;
77449;SDS011;66536;53.150;18.172;2024-03-08T13:41:15;24.90;;;12.90;;
77449;SDS011;66536;53.150;18.172;2024-03-08T13:43:43;22.20;;;11.90;;
77449;SDS011;66536;53.150;18.172;2024-03-08T13:46:12;18.80;;;10.80;;
77449;SDS011;66536;53.150;18.172;2024-03-08T13:48:39;22.70;;;10.70;;
77449;SDS011;66536;53.150;18.172;2024-03-08T13:51:07;20.00;;;11.20;;
77449;SDS011;66536;53.150;18.172;2024-03-08T13:53:35;18.70;;;11.30;;
77449;SDS011;66536;53.150;18.172;2024-03-08T13:56:02;21.00;;;10.80;;
77449;SDS011;66536;53.150;18.172;2024-03-08T13:58:29;19.90;;;10.10;;
77449;SDS011;66536;53.150;18.172;2024-03-08T14:00:55;17.80;;;10.10;;
77449;SDS011;66536;53.150;18.172;2024-03-08T14:03:21;22.10;;;10.50;;
77449;SDS011;66536;53.150;18.172;2024-03-08T14:05:50;19.70;;;10.10;;
77449;SDS011;66536;53.150;18.172;2024-03-08T14:08:21;20.20;;;9.90;;
77449;SDS011;66536;53.150;18.172;2024-03-08T14:10:47;17.30;;;10.20;;
77449;SDS011;66536;53.150;18.172;2024-03-08T14:13:16;19.20;;;10.20;;
77449;SDS011;66536;53.150;18.172;2024-03-08T14:15:44;19.80;;;10.10;;
77449;SDS011;66536;53.150;18.172;2024-03-08T14:18:12;23.60;;;10.40;;
77449;SDS011;66536;53.150;18.172;2024-03-08T14:20:39;18.00;;;9.50;;
77449;SDS011;66536;53.150;18.172;2024-03-08T14:23:05;15.80;;;8.80;;